Tomsk, Russia
Current Conditions -  °F | °C
As of 1:30 PM on Wednesday 28 Jan 2015 (Local Time) from UNTT Reporting Station
Overcast Overcast  
Wind Chill: -16°   Ceiling: 23000
Heat Index:   Visibility: 6mi
Dew Point: -2°   Wind: 16mph
Humidity: 78%   Direction: 210°SSW
Pressure: 30.33"   Gusts: NA
Location:  56.5°N, 84.97°E
Report Text: UNTT 280630Z 21007MPS 9999 FEW026 OVC230 M16/M19 Q1027 NOSIGRMK QFE755 21490140
Loading
Personal Weather Stations






























Interactive Weather Map New forecast layout! Learn more

10-Day Weather Forecast

Advertisements
Track Severe Weather on mobile